Time;durP1;ratioP1;P1;durP2;ratioP2;P2;SDS_P1;SDS_P2;PMS_P1;PMS_P2;Temp;Humidity;BMP_temperature;BMP_pressure;BME280_temperature;BME280_humidity;BME280_pressure;Samples;Min_cycle;Max_cycle;Signal;HPM_P1;HPM_P2
2022/08/06 00:00:53;;;;;;;;;1.00;1.00;;;;;20.95;36.45;101898.47;5076487;27;45461;-83
2022/08/06 00:03:18;;;;;;;;;1.00;1.00;;;;;20.82;36.48;101879.63;5094632;27;45515;-84
2022/08/06 00:05:44;;;;;;;;;1.75;1.75;;;;;21.09;36.72;101923.56;5075846;27;48450;-82
2022/08/06 00:08:09;;;;;;;;;1.00;1.00;;;;;21.01;36.90;101909.22;5094320;27;45446;-85
2022/08/06 00:10:34;;;;;;;;;1.00;1.00;;;;;20.97;36.94;101918.97;5076089;27;45232;-82
2022/08/06 00:13:00;;;;;;;;;2.50;2.00;;;;;21.04;37.01;101934.22;5094705;27;45512;-83
2022/08/06 00:15:26;;;;;;;;;1.00;1.00;;;;;20.96;37.16;101922.53;5094106;27;46396;-82
2022/08/06 00:17:52;;;;;;;;;1.50;1.50;;;;;20.95;37.58;101922.53;5076481;27;45644;-85
2022/08/06 00:20:18;;;;;;;;;2.00;2.00;;;;;20.85;37.54;101911.75;5094487;27;45422;-82
2022/08/06 00:22:43;;;;;;;;;2.00;2.00;;;;;20.81;37.63;101909.91;5094463;27;45488;-83
2022/08/06 00:25:10;;;;;;;;;1.00;1.00;;;;;20.84;37.64;101909.97;5094229;27;45276;-85
2022/08/06 00:27:36;;;;;;;;;2.00;2.00;;;;;20.86;37.58;101926.88;5094393;27;45375;-83
2022/08/06 00:30:01;;;;;;;;;0.25;0.25;;;;;20.68;37.90;101883.91;5094331;27;45510;-84
2022/08/06 00:32:26;;;;;;;;;2.00;2.00;;;;;20.67;37.92;101889.25;5094088;27;45308;-84
2022/08/06 00:34:52;;;;;;;;;1.50;1.50;;;;;20.70;38.19;101900.88;5075320;27;47495;-82
2022/08/06 00:37:17;;;;;;;;;1.00;1.00;;;;;20.68;38.17;101909.75;5094049;27;45344;-84
2022/08/06 00:39:43;;;;;;;;;3.00;2.25;;;;;20.78;38.12;101925.91;5094311;27;45350;-82
2022/08/06 00:42:08;;;;;;;;;0.50;0.50;;;;;20.72;38.29;101911.56;5094337;27;45595;-84
2022/08/06 00:44:34;;;;;;;;;1.50;1.50;;;;;20.63;38.63;101909.69;5093889;27;46199;-83
2022/08/06 00:46:59;;;;;;;;;2.00;2.00;;;;;20.65;38.67;101920.41;5075355;27;45938;-86
2022/08/06 00:49:25;;;;;;;;;1.75;1.75;;;;;20.78;38.65;101949.94;5093944;27;45749;-84
2022/08/06 00:51:50;;;;;;;;;2.00;1.50;;;;;20.64;38.08;101923.94;5093742;27;45419;-82
2022/08/06 00:54:16;;;;;;;;;1.00;1.00;;;;;20.43;38.61;101893.38;5093876;27;46610;-82
2022/08/06 00:56:41;;;;;;;;;1.25;1.00;;;;;20.55;38.88;101914.06;5093701;27;45312;-82
2022/08/06 00:59:06;;;;;;;;;2.00;2.00;;;;;20.49;38.84;101906.88;5093943;27;45240;-84
2022/08/06 01:01:32;;;;;;;;;2.00;2.00;;;;;20.66;38.85;101940.91;5093884;27;45567;-83
2022/08/06 01:03:57;;;;;;;;;2.00;1.25;;;;;20.45;39.08;101906.78;5093727;27;46565;-84
2022/08/06 01:06:23;;;;;;;;;1.00;1.00;;;;;20.49;39.39;101917.56;5093999;27;45375;-86
2022/08/06 01:08:48;;;;;;;;;1.00;1.00;;;;;20.52;39.28;101930.03;5093815;27;45340;-84
2022/08/06 01:11:13;;;;;;;;;1.00;1.00;;;;;20.43;39.54;101924.53;5093525;27;45504;-83
2022/08/06 01:13:39;;;;;;;;;2.00;2.00;;;;;20.54;39.26;101934.53;5093450;27;45628;-84
2022/08/06 01:16:35;;;;;;;;;2.00;2.00;;;;;20.63;39.29;101941.75;5093302;27;46068;-82
2022/08/06 01:19:17;;;;;;;;;2.00;1.25;;;;;20.64;39.35;101947.97;5076987;27;45431;-84
2022/08/06 01:21:52;;;;;;;;;2.00;2.00;;;;;20.64;39.19;101956.00;5097364;27;45738;-85
2022/08/06 01:24:43;;;;;;;;;2.00;2.00;;;;;20.57;39.42;101939.91;5078551;27;47220;-84
2022/08/06 01:27:36;;;;;;;;;0.25;0.25;;;;;20.52;39.32;101941.63;5078569;27;45750;-85
2022/08/06 01:30:07;;;;;;;;;2.00;2.00;;;;;20.53;39.51;101942.50;5078429;27;45414;-83
2022/08/06 01:32:38;;;;;;;;;3.00;2.00;;;;;20.47;39.61;101929.97;5078072;27;45459;-82
2022/08/06 01:35:08;;;;;;;;;1.75;1.75;;;;;20.46;39.09;101935.28;5096373;27;46461;-85
2022/08/06 01:37:46;;;;;;;;;2.50;2.00;;;;;20.34;39.37;101923.56;5078101;27;45774;-83
2022/08/06 01:40:19;;;;;;;;;1.25;1.25;;;;;20.41;39.35;101937.88;5078674;27;45432;-85
2022/08/06 01:42:47;;;;;;;;;2.00;1.75;;;;;20.34;39.40;101936.00;5096786;27;45439;-84
2022/08/06 01:45:17;;;;;;;;;2.00;1.75;;;;;20.33;39.67;101942.22;5078246;27;46013;-85
2022/08/06 01:47:47;;;;;;;;;1.75;1.25;;;;;20.19;40.00;101914.44;5096645;27;45283;-82
2022/08/06 01:50:14;;;;;;;;;2.00;2.00;;;;;20.34;39.58;101950.28;5096599;27;45377;-85
2022/08/06 01:52:42;;;;;;;;;3.00;3.00;;;;;20.29;39.65;101951.06;5078364;27;45637;-82
2022/08/06 01:55:13;;;;;;;;;3.00;2.00;;;;;20.13;39.58;101930.38;5096392;27;45532;-86
2022/08/06 01:57:43;;;;;;;;;3.25;2.00;;;;;20.07;39.67;101926.72;5096544;27;45977;-85
2022/08/06 02:00:09;;;;;;;;;2.00;2.00;;;;;20.15;40.02;101944.63;5096659;27;45496;-82
2022/08/06 02:02:36;;;;;;;;;3.25;3.00;;;;;20.08;39.66;101941.88;5096578;27;45566;-83
2022/08/06 02:05:03;;;;;;;;;3.00;3.00;;;;;20.12;39.92;101947.25;5096112;27;46216;-83
2022/08/06 02:07:32;;;;;;;;;3.75;3.75;;;;;20.00;39.96;101943.53;5078341;27;45439;-83
2022/08/06 02:10:00;;;;;;;;;5.00;4.00;;;;;19.96;39.94;101931.03;5096654;27;45527;-84
2022/08/06 02:12:27;;;;;;;;;3.00;3.00;;;;;20.01;40.52;101944.44;5096792;27;45710;-82
2022/08/06 02:15:04;;;;;;;;;3.25;3.00;;;;;19.98;40.19;101944.38;5096286;27;46156;-84
2022/08/06 02:17:32;;;;;;;;;3.00;3.00;;;;;19.90;40.69;101938.94;5096271;27;45824;-83
2022/08/06 02:20:00;;;;;;;;;3.00;3.00;;;;;19.82;40.32;101930.81;5096356;27;45696;-82
2022/08/06 02:22:31;;;;;;;;;2.75;2.00;;;;;19.90;40.47;101943.34;5096481;27;45521;-84
2022/08/06 02:25:01;;;;;;;;;3.00;2.25;;;;;19.79;40.42;101933.41;5096205;27;45366;-82
2022/08/06 02:27:28;;;;;;;;;4.00;3.00;;;;;19.63;40.63;101906.50;5077772;27;45820;-85
2022/08/06 02:29:57;;;;;;;;;3.00;2.00;;;;;19.75;40.61;101936.00;5077936;27;45479;-85
2022/08/06 02:32:23;;;;;;;;;3.50;3.50;;;;;19.72;40.41;101933.31;5096189;27;45282;-82
2022/08/06 02:34:48;;;;;;;;;2.75;2.00;;;;;19.76;40.75;101948.50;5095565;27;46442;-85
2022/08/06 02:37:29;;;;;;;;;1.75;1.25;;;;;19.48;40.59;101901.75;5095785;27;45617;-82
2022/08/06 02:40:21;;;;;;;;;1.75;1.50;;;;;19.70;40.55;101946.59;5096064;27;45509;-85
2022/08/06 02:43:12;;;;;;;;;2.50;2.50;;;;;19.47;40.61;101915.97;5095605;27;45400;-85
2022/08/06 02:45:46;;;;;;;;;3.00;2.00;;;;;19.64;40.79;101948.28;5095791;27;46369;-85
2022/08/06 02:48:26;;;;;;;;;1.00;1.00;;;;;19.41;40.49;101905.19;5077190;27;45596;-82
2022/08/06 02:50:53;;;;;;;;;2.00;2.00;;;;;19.45;40.57;101912.38;5095344;27;45438;-82
2022/08/06 02:53:39;;;;;;;;;2.50;2.25;;;;;19.46;40.37;101915.09;5095740;27;45658;-85
2022/08/06 02:56:10;;;;;;;;;2.25;2.25;;;;;19.55;40.67;101931.22;5077075;27;47354;-83
2022/08/06 02:58:39;;;;;;;;;2.00;2.00;;;;;19.29;40.43;101898.78;5095612;27;45314;-85
2022/08/06 03:01:11;;;;;;;;;1.00;1.00;;;;;19.25;40.35;101898.69;5077358;27;45447;-84
2022/08/06 03:03:41;;;;;;;;;1.00;0.00;;;;;19.41;40.01;101935.44;5095617;27;45238;-82
2022/08/06 03:06:08;;;;;;;;;1.00;1.00;;;;;19.42;40.01;101928.34;5076527;27;47998;-85
2022/08/06 03:08:35;;;;;;;;;1.50;0.75;;;;;19.15;40.21;101888.75;5095253;27;45302;-82
2022/08/06 03:11:03;;;;;;;;;1.00;1.00;;;;;19.37;40.09;101930.91;5095357;27;45408;-85
2022/08/06 03:13:30;;;;;;;;;1.00;1.00;;;;;19.19;39.98;101910.16;5095240;27;45478;-82
2022/08/06 03:16:00;;;;;;;;;3.00;1.00;;;;;19.18;40.17;101903.03;5095515;27;45342;-82
2022/08/06 03:18:27;;;;;;;;;1.00;0.75;;;;;19.16;40.02;101899.47;5095166;27;45429;-81
2022/08/06 03:20:54;;;;;;;;;1.00;1.00;;;;;19.31;40.20;101920.16;5095205;27;45365;-85
2022/08/06 03:23:21;;;;;;;;;1.00;1.00;;;;;19.19;40.36;101904.81;5095669;27;45277;-82
2022/08/06 03:25:48;;;;;;;;;1.00;1.00;;;;;19.01;40.51;101876.09;5095230;27;45548;-85
2022/08/06 03:28:15;;;;;;;;;2.00;1.00;;;;;19.23;40.38;101916.44;5095313;27;45335;-83
2022/08/06 03:30:43;;;;;;;;;1.00;1.00;;;;;19.24;39.93;101924.47;5076594;27;45520;-83
2022/08/06 03:33:11;;;;;;;;;1.00;1.00;;;;;19.26;40.12;101935.13;5095297;27;45473;-86
2022/08/06 03:35:38;;;;;;;;;1.50;1.00;;;;;19.15;40.16;101916.28;5094563;27;46329;-85
2022/08/06 03:38:07;;;;;;;;;1.50;0.75;;;;;19.21;40.43;101931.50;5076926;27;45964;-82
2022/08/06 03:40:33;;;;;;;;;2.50;2.00;;;;;19.15;40.22;101920.72;5076721;27;45378;-85
2022/08/06 03:42:59;;;;;;;;;1.00;1.00;;;;;19.17;40.71;101929.66;5076260;27;45632;-81
2022/08/06 03:45:27;;;;;;;;;1.00;0.50;;;;;19.11;40.31;101921.53;5095137;27;45513;-85
2022/08/06 03:47:55;;;;;;;;;1.00;1.00;;;;;18.98;40.60;101904.44;5094567;27;45742;-85
2022/08/06 03:50:31;;;;;;;;;1.00;1.00;;;;;19.16;40.67;101933.19;5095042;27;45659;-84
2022/08/06 03:53:02;;;;;;;;;1.00;1.00;;;;;18.85;40.07;101887.31;5094894;27;45465;-84
2022/08/06 03:55:30;;;;;;;;;1.00;1.00;;;;;18.95;39.92;101913.25;5094740;27;46242;-85
2022/08/06 03:58:01;;;;;;;;;1.75;1.00;;;;;19.07;40.40;101941.94;5076804;27;45550;-84
2022/08/06 04:00:32;;;;;;;;;0.00;0.00;;;;;19.01;39.99;101933.78;5094825;27;45327;-85
2022/08/06 04:02:59;;;;;;;;;1.25;1.00;;;;;18.88;40.36;101911.38;5094845;27;45373;-84
2022/08/06 04:05:27;;;;;;;;;1.00;1.00;;;;;18.99;40.00;101939.09;5094098;27;45450;-82
2022/08/06 04:07:57;;;;;;;;;0.50;0.50;;;;;18.95;39.77;101937.25;5094546;27;45397;-83
2022/08/06 04:10:25;;;;;;;;;0.25;0.25;;;;;18.97;40.32;101943.50;5094609;27;45291;-84
2022/08/06 04:12:51;;;;;;;;;1.00;1.00;;;;;18.74;40.16;101910.19;5076165;27;45294;-83
2022/08/06 04:15:17;;;;;;;;;0.25;0.00;;;;;18.93;40.05;101949.66;5094724;27;45543;-81
2022/08/06 04:17:46;;;;;;;;;1.00;1.00;;;;;18.97;40.06;101950.63;5076131;27;45663;-82
2022/08/06 04:20:16;;;;;;;;;1.00;0.75;;;;;18.88;40.40;101943.34;5094196;27;45484;-82
2022/08/06 04:22:41;;;;;;;;;0.75;0.75;;;;;18.89;40.34;101955.78;5094408;27;45400;-84
2022/08/06 04:25:10;;;;;;;;;1.00;0.75;;;;;18.74;40.32;101943.03;5075967;27;47940;-83
2022/08/06 04:27:38;;;;;;;;;1.00;1.00;;;;;18.64;40.15;101919.72;5075922;27;45388;-86
2022/08/06 04:30:05;;;;;;;;;1.00;1.00;;;;;18.84;40.07;101968.09;5094265;27;45381;-85
2022/08/06 04:32:32;;;;;;;;;1.50;1.50;;;;;18.73;40.36;101961.66;5075960;27;45563;-85
2022/08/06 04:34:58;;;;;;;;;2.00;1.00;;;;;18.65;40.14;101947.25;5093659;27;45502;-84
2022/08/06 04:37:24;;;;;;;;;0.00;0.00;;;;;18.70;40.03;101966.91;5094691;27;45717;-85
2022/08/06 04:39:50;;;;;;;;;1.00;1.00;;;;;18.62;40.52;101966.75;5094330;27;45245;-83
2022/08/06 04:42:16;;;;;;;;;1.75;1.00;;;;;18.69;40.04;101978.44;5094252;27;45622;-86
2022/08/06 04:44:42;;;;;;;;;1.00;1.00;;;;;18.64;40.46;101980.97;5075591;27;47963;-86
2022/08/06 04:47:07;;;;;;;;;1.00;1.00;;;;;18.53;40.54;101963.88;5093733;27;45855;-82
2022/08/06 04:49:33;;;;;;;;;1.25;1.00;;;;;18.52;40.34;101957.66;5094350;27;45715;-86
2022/08/06 04:51:58;;;;;;;;;2.00;1.00;;;;;18.47;39.94;101953.06;5094152;27;45350;-83
2022/08/06 04:54:23;;;;;;;;;0.25;0.25;;;;;18.61;40.11;101985.34;5095864;27;45417;-83
2022/08/06 04:56:49;;;;;;;;;0.00;0.00;;;;;18.52;40.45;101976.31;5079404;27;45927;-85
2022/08/06 04:59:14;;;;;;;;;0.00;0.00;;;;;18.46;39.97;101962.84;5097729;27;45390;-84
2022/08/06 05:01:39;;;;;;;;;2.00;1.00;;;;;18.61;40.08;101983.56;5079167;27;45464;-85
2022/08/06 05:04:05;;;;;;;;;1.00;1.00;;;;;18.58;40.15;101988.84;5097503;27;46565;-84
2022/08/06 05:07:05;;;;;;;;;0.00;0.00;;;;;18.65;40.10;102001.41;5097494;27;45430;-85
2022/08/06 05:09:30;;;;;;;;;0.00;0.00;;;;;18.52;40.08;101978.97;5079351;27;45335;-86
2022/08/06 05:12:11;;;;;;;;;0.50;0.50;;;;;18.53;39.88;101983.41;5097411;27;45298;-85
2022/08/06 05:14:49;;;;;;;;;1.25;1.00;;;;;18.25;40.56;101931.31;5097288;27;46544;-85
2022/08/06 05:17:16;;;;;;;;;1.75;1.00;;;;;18.55;39.92;101988.75;5079047;27;45384;-84
2022/08/06 05:19:47;;;;;;;;;1.00;1.00;;;;;18.50;40.37;101991.31;5079085;27;45436;-86
2022/08/06 05:22:16;;;;;;;;;1.00;0.50;;;;;18.50;40.62;101990.44;5097302;27;45473;-85
2022/08/06 05:24:42;;;;;;;;;1.75;1.50;;;;;18.35;40.48;101969.69;5078071;27;48797;-83
2022/08/06 05:27:10;;;;;;;;;1.00;0.75;;;;;18.40;40.42;101969.78;5096966;27;45500;-85
2022/08/06 05:29:36;;;;;;;;;1.25;0.75;;;;;18.49;40.05;101989.53;5079050;27;46084;-82
2022/08/06 05:32:02;;;;;;;;;0.25;0.00;;;;;18.59;40.57;102003.06;5097090;27;45397;-84
2022/08/06 05:34:28;;;;;;;;;1.25;1.00;;;;;18.57;40.46;101992.38;5096540;27;45488;-85
2022/08/06 05:36:53;;;;;;;;;0.00;0.00;;;;;18.63;40.27;102010.25;5097375;27;45545;-82
2022/08/06 05:39:19;;;;;;;;;1.00;1.00;;;;;18.50;40.08;101990.44;5097159;27;45507;-85
2022/08/06 05:41:46;;;;;;;;;2.00;1.00;;;;;18.53;40.52;101985.19;5097272;27;45290;-83
2022/08/06 05:44:11;;;;;;;;;0.00;0.00;;;;;18.59;40.80;101997.72;5096778;27;46682;-85
2022/08/06 05:46:45;;;;;;;;;0.00;0.00;;;;;18.58;40.25;101994.16;5096618;27;45445;-82
2022/08/06 05:49:15;;;;;;;;;1.50;1.00;;;;;18.74;40.52;102022.06;5095713;27;45506;-84
2022/08/06 05:51:57;;;;;;;;;0.50;0.50;;;;;18.74;40.72;102024.72;5095783;27;45405;-82
2022/08/06 05:54:45;;;;;;;;;1.00;1.00;;;;;18.75;40.78;102019.41;5095803;27;45529;-82
2022/08/06 05:57:15;;;;;;;;;0.75;0.25;;;;;18.49;40.57;101978.00;5095833;27;45719;-82
2022/08/06 05:59:49;;;;;;;;;1.00;0.75;;;;;18.76;40.63;102025.63;5095904;27;45382;-85
2022/08/06 06:02:15;;;;;;;;;3.00;2.00;;;;;18.77;41.09;102027.47;5095627;27;45370;-84
2022/08/06 06:04:43;;;;;;;;;1.00;1.00;;;;;18.58;40.81;102001.25;5094604;27;46183;-82
2022/08/06 06:07:09;;;;;;;;;1.75;1.00;;;;;18.56;40.91;101987.88;5095626;27;45697;-83
2022/08/06 06:09:37;;;;;;;;;0.50;0.50;;;;;18.80;40.76;102033.72;5095971;27;45497;-82
2022/08/06 06:12:04;;;;;;;;;0.25;0.25;;;;;18.63;40.95;101986.28;5077029;27;45474;-82
2022/08/06 06:14:39;;;;;;;;;1.00;1.00;;;;;18.70;40.58;102001.53;5095151;27;45550;-85
2022/08/06 06:17:04;;;;;;;;;1.00;1.00;;;;;18.86;41.26;102034.72;5095269;27;45319;-84
2022/08/06 06:19:59;;;;;;;;;0.50;0.50;;;;;18.87;40.69;102028.56;5076828;27;46128;-82
2022/08/06 06:22:35;;;;;;;;;1.00;0.25;;;;;18.73;40.82;101999.84;5090988;27;45494;-85
2022/08/06 06:25:38;;;;;;;;;1.00;1.00;;;;;18.75;41.01;102002.53;5095017;27;45515;-82
2022/08/06 06:28:15;;;;;;;;;1.00;1.00;;;;;18.76;40.86;102004.34;5092570;27;45748;-82
2022/08/06 06:30:50;;;;;;;;;0.00;0.00;;;;;18.93;40.77;102024.25;5095160;27;45540;-86
2022/08/06 06:33:53;;;;;;;;;1.00;1.00;;;;;19.03;41.00;102038.66;5076640;27;45439;-83
2022/08/06 06:36:44;;;;;;;;;0.00;0.00;;;;;19.08;40.97;102034.31;5093255;27;46396;-85
2022/08/06 06:39:27;;;;;;;;;0.75;0.75;;;;;19.01;41.02;102021.72;5076505;27;45433;-84
2022/08/06 06:42:06;;;;;;;;;1.25;1.00;;;;;19.06;41.13;102028.03;5094908;27;45373;-84
2022/08/06 06:44:31;;;;;;;;;1.00;1.00;;;;;19.16;41.41;102040.72;5094518;27;45337;-82
2022/08/06 06:47:41;;;;;;;;;1.00;0.50;;;;;19.20;40.81;102052.31;5054044;27;1137028;-84
2022/08/06 06:50:17;;;;;;;;;1.00;1.00;;;;;19.18;41.01;102044.28;5052324;28;45600;-86
2022/08/06 06:52:46;;;;;;;;;0.00;0.00;;;;;18.99;41.32;102003.03;5052504;28;45404;-84
2022/08/06 06:55:21;;;;;;;;;0.25;0.00;;;;;19.32;40.79;102056.13;5060237;27;45489;-82
2022/08/06 06:57:52;;;;;;;;;0.50;0.00;;;;;19.22;40.61;102037.28;5095700;27;46613;-84
2022/08/06 07:00:18;;;;;;;;;0.00;0.00;;;;;19.33;40.24;102060.59;5077266;27;45780;-85
2022/08/06 07:02:48;;;;;;;;;0.25;0.25;;;;;19.19;40.26;102043.41;5095760;27;45464;-82
2022/08/06 07:05:15;;;;;;;;;0.50;0.50;;;;;19.28;39.94;102056.03;5095258;27;45445;-82
2022/08/06 07:07:42;;;;;;;;;0.75;0.00;;;;;19.29;40.45;102052.50;5095442;27;45428;-82
2022/08/06 07:10:10;;;;;;;;;0.00;0.00;;;;;19.35;39.74;102065.94;5077187;27;46457;-82
2022/08/06 07:12:37;;;;;;;;;1.00;1.00;;;;;19.14;39.95;102022.88;5095516;27;45324;-82
2022/08/06 07:15:06;;;;;;;;;1.00;0.00;;;;;19.37;39.85;102066.00;5076966;27;45470;-82
2022/08/06 07:17:35;;;;;;;;;0.00;0.00;;;;;19.16;39.64;102021.13;5094442;27;46414;-82
2022/08/06 07:20:05;;;;;;;;;0.00;0.00;;;;;19.33;39.76;102052.59;5094820;27;45294;-84
2022/08/06 07:22:32;;;;;;;;;0.00;0.00;;;;;19.45;39.63;102059.91;5095191;27;45378;-81
2022/08/06 07:25:03;;;;;;;;;1.00;1.00;;;;;19.24;39.72;102022.19;5095321;27;45634;-83
2022/08/06 07:27:38;;;;;;;;;0.25;0.25;;;;;19.48;40.26;102057.31;5095280;27;45348;-83
2022/08/06 07:30:05;;;;;;;;;0.50;0.00;;;;;19.51;39.80;102051.16;5095047;27;45843;-82
2022/08/06 07:32:33;;;;;;;;;1.00;1.00;;;;;19.67;39.46;102069.28;5094966;27;45367;-84
2022/08/06 07:35:08;;;;;;;;;1.00;1.00;;;;;19.52;39.70;102036.94;5094734;27;45588;-84
2022/08/06 07:37:37;;;;;;;;;1.00;1.00;;;;;19.53;39.40;102036.97;5094627;27;45429;-85
2022/08/06 07:40:05;;;;;;;;;0.75;0.00;;;;;19.51;38.96;102038.72;5094918;27;45844;-85
2022/08/06 07:42:31;;;;;;;;;0.00;0.00;;;;;19.54;39.14;102045.88;5094895;27;45358;-84
2022/08/06 07:45:03;;;;;;;;;0.50;0.50;;;;;19.79;39.05;102088.16;5076855;27;45638;-84
2022/08/06 07:47:36;;;;;;;;;0.50;0.50;;;;;19.68;39.52;102054.16;5094526;27;46433;-82
2022/08/06 07:50:02;;;;;;;;;0.00;0.00;;;;;19.86;39.02;102081.19;5094449;27;45339;-84
2022/08/06 07:52:28;;;;;;;;;1.00;0.25;;;;;19.75;38.97;102045.38;5094796;27;45567;-83
2022/08/06 07:54:55;;;;;;;;;0.00;0.00;;;;;19.87;38.95;102066.97;5094659;27;45672;-84
2022/08/06 07:57:22;;;;;;;;;1.00;1.00;;;;;19.88;39.20;102067.84;5094559;27;45369;-85
2022/08/06 07:59:49;;;;;;;;;1.00;1.00;;;;;19.93;38.49;102067.06;5076036;27;45835;-84
2022/08/06 08:02:16;;;;;;;;;0.00;0.00;;;;;20.05;38.95;102079.72;5094829;27;45311;-82
2022/08/06 08:07:28;;;;;;;;;0.00;0.00;;;;;20.05;38.29;102061.94;5094585;27;45762;-81
2022/08/06 08:09:55;;;;;;;;;1.00;0.00;;;;;20.04;38.38;102049.44;5094646;27;45390;-83
2022/08/06 08:12:21;;;;;;;;;1.00;1.00;;;;;20.14;38.07;102063.84;5094423;27;45387;-83
2022/08/06 08:14:48;;;;;;;;;0.75;0.00;;;;;20.21;37.93;102060.41;5094768;27;45344;-85
2022/08/06 08:17:15;;;;;;;;;0.00;0.00;;;;;20.35;37.97;102079.34;5094464;27;45477;-85
2022/08/06 08:19:40;;;;;;;;;0.00;0.00;;;;;20.26;37.85;102061.38;5075612;27;45395;-82
2022/08/06 08:22:15;;;;;;;;;0.00;0.00;;;;;20.44;37.75;102082.13;5076145;27;45428;-84
2022/08/06 08:24:42;;;;;;;;;0.75;0.00;;;;;20.48;37.45;102081.34;5094457;27;45380;-86
2022/08/06 08:27:10;;;;;;;;;0.50;0.00;;;;;20.40;37.56;102061.59;5094236;27;45396;-85
2022/08/06 08:29:40;;;;;;;;;1.00;0.25;;;;;20.36;37.29;102047.31;5094436;27;45803;-81
2022/08/06 08:32:07;;;;;;;;;1.00;0.00;;;;;20.21;37.15;102015.03;5094543;27;45369;-82
2022/08/06 08:34:32;;;;;;;;;0.00;0.00;;;;;20.24;37.09;102020.41;5094309;27;45381;-86
2022/08/06 08:36:58;;;;;;;;;0.00;0.00;;;;;20.56;37.21;102071.66;5093744;27;45424;-83
2022/08/06 08:39:24;;;;;;;;;0.25;0.25;;;;;20.56;37.02;102058.31;5075892;27;45321;-82
2022/08/06 08:41:58;;;;;;;;;1.00;0.00;;;;;20.50;37.02;102047.56;5075953;27;45323;-84
2022/08/06 08:44:26;;;;;;;;;1.00;0.00;;;;;20.68;36.49;102059.34;5094263;27;45504;-85
2022/08/06 08:46:56;;;;;;;;;0.00;0.00;;;;;20.52;36.31;102021.75;5093962;27;46122;-82
2022/08/06 08:49:37;;;;;;;;;0.50;0.50;;;;;20.68;36.48;102044.22;5094088;27;45453;-83
2022/08/06 08:52:03;;;;;;;;;0.00;0.00;;;;;20.78;35.89;102055.94;5075276;27;45425;-84
2022/08/06 08:54:33;;;;;;;;;0.00;0.00;;;;;20.71;36.12;102038.03;5093988;27;45522;-82
2022/08/06 08:56:59;;;;;;;;;0.00;0.00;;;;;20.75;35.94;102034.53;5075542;27;45993;-85
2022/08/06 08:59:25;;;;;;;;;0.00;0.00;;;;;20.92;35.53;102064.13;5094210;27;45329;-86
2022/08/06 09:01:51;;;;;;;;;0.00;0.00;;;;;20.75;35.42;102021.19;5094325;27;45560;-81
2022/08/06 09:04:18;;;;;;;;;0.00;0.00;;;;;20.79;35.07;102041.72;5093885;27;45598;-82
2022/08/06 09:06:43;;;;;;;;;0.00;0.00;;;;;20.90;34.68;102050.78;5093576;27;45441;-82
2022/08/06 09:09:09;;;;;;;;;0.00;0.00;;;;;20.82;34.98;102034.63;5075457;27;45358;-83
2022/08/06 09:11:36;;;;;;;;;0.00;0.00;;;;;20.90;34.91;102040.06;5093831;27;45433;-84
2022/08/06 09:14:06;;;;;;;;;0.00;0.00;;;;;20.93;35.23;102032.06;5093886;27;45359;-81
2022/08/06 09:16:33;;;;;;;;;0.00;0.00;;;;;21.14;34.49;102060.88;5075216;27;47510;-81
2022/08/06 09:19:00;;;;;;;;;1.00;0.00;;;;;21.08;34.35;102053.69;5093491;27;45588;-82
2022/08/06 09:21:27;;;;;;;;;1.75;1.00;;;;;21.11;34.01;102039.44;5075370;27;45677;-85
2022/08/06 09:23:52;;;;;;;;;1.00;1.00;;;;;21.21;34.68;102061.84;5075334;27;45500;-84
2022/08/06 09:26:17;;;;;;;;;0.00;0.00;;;;;21.25;34.37;102052.97;5093639;27;45574;-84
2022/08/06 09:28:44;;;;;;;;;0.50;0.00;;;;;21.26;34.10;102052.09;5075127;27;45485;-84
2022/08/06 09:31:12;;;;;;;;;0.00;0.00;;;;;21.25;34.50;102043.19;5093562;27;45310;-85
2022/08/06 09:33:42;;;;;;;;;0.00;0.00;;;;;21.36;33.79;102056.69;5075390;27;45503;-82
2022/08/06 09:36:13;;;;;;;;;0.00;0.00;;;;;21.49;34.04;102063.97;5092960;27;45557;-85
2022/08/06 09:38:49;;;;;;;;;1.00;0.00;;;;;21.62;34.24;102076.63;5093406;27;45489;-85
2022/08/06 09:41:16;;;;;;;;;0.00;0.00;;;;;21.60;33.93;102046.25;5096717;27;45489;-82
2022/08/06 09:43:44;;;;;;;;;0.00;0.00;;;;;21.75;33.48;102066.03;5097012;27;45281;-82
2022/08/06 09:46:09;;;;;;;;;0.00;0.00;;;;;21.70;33.29;102052.59;5078479;27;46246;-81
2022/08/06 09:48:35;;;;;;;;;1.00;0.00;;;;;21.67;33.31;102032.94;5096656;27;45390;-84
2022/08/06 09:51:01;;;;;;;;;0.00;0.00;;;;;21.73;32.81;102030.34;5077883;27;45475;-85
2022/08/06 09:53:27;;;;;;;;;0.00;0.00;;;;;21.85;32.83;102044.72;5096770;27;45378;-83
2022/08/06 09:55:54;;;;;;;;;0.00;0.00;;;;;21.92;33.37;102042.06;5078388;27;47079;-81
2022/08/06 09:58:35;;;;;;;;;0.50;0.50;;;;;22.03;33.30;102062.72;5096282;27;45786;-82
2022/08/06 10:01:14;;;;;;;;;0.00;0.00;;;;;21.97;33.08;102034.97;5097184;27;45506;-82
2022/08/06 10:03:40;;;;;;;;;0.00;0.00;;;;;22.03;32.11;102038.63;5096867;27;45438;-84
2022/08/06 10:06:10;;;;;;;;;0.00;0.00;;;;;22.17;32.35;102049.47;5096418;27;46380;-83
2022/08/06 10:08:35;;;;;;;;;0.00;0.00;;;;;22.14;32.65;102054.81;5096574;27;45295;-81
2022/08/06 10:11:02;;;;;;;;;0.00;0.00;;;;;22.11;31.43;102030.66;5078123;27;45334;-82
2022/08/06 10:13:29;;;;;;;;;0.00;0.00;;;;;22.25;31.72;102053.09;5096504;27;45457;-84
2022/08/06 10:15:57;;;;;;;;;0.00;0.00;;;;;22.14;31.64;102028.03;5077989;27;47051;-83
2022/08/06 10:18:34;;;;;;;;;0.75;0.00;;;;;22.29;31.07;102037.94;5096499;27;45744;-85
2022/08/06 10:21:04;;;;;;;;;0.00;0.00;;;;;22.38;30.88;102054.97;5077899;27;45245;-81
2022/08/06 10:23:35;;;;;;;;;0.00;0.00;;;;;22.43;31.04;102054.13;5078119;27;45527;-84
2022/08/06 10:26:04;;;;;;;;;0.00;0.00;;;;;22.48;30.58;102038.97;5096243;27;46548;-85
2022/08/06 10:28:32;;;;;;;;;0.00;0.00;;;;;22.37;30.73;102023.72;5096663;27;45634;-83
2022/08/06 10:30:59;;;;;;;;;0.50;0.50;;;;;22.63;30.22;102049.78;5096129;27;45461;-81
2022/08/06 10:33:30;;;;;;;;;0.00;0.00;;;;;22.66;29.95;102052.50;5077767;27;45635;-85
2022/08/06 10:36:03;;;;;;;;;0.50;0.00;;;;;22.67;29.98;102041.75;5095756;27;46451;-85
2022/08/06 10:38:33;;;;;;;;;0.00;0.00;;;;;22.66;29.71;102025.69;5096525;27;45815;-84
2022/08/06 10:40:59;;;;;;;;;0.00;0.00;;;;;22.54;29.50;101994.34;5078001;27;45365;-84
2022/08/06 10:43:26;;;;;;;;;0.00;0.00;;;;;22.61;29.95;102001.53;5096358;27;45446;-82
2022/08/06 10:45:52;;;;;;;;;1.00;1.00;;;;;22.81;29.88;102027.53;5077494;27;48188;-85
2022/08/06 10:48:18;;;;;;;;;8.00;7.00;;;;;22.78;30.00;102016.81;5095559;27;45397;-85
2022/08/06 10:50:44;;;;;;;;;12.75;10.50;;;;;22.88;29.55;102029.34;5076497;27;45348;-81
2022/08/06 10:53:10;;;;;;;;;10.00;9.50;;;;;22.96;28.82;102026.75;5095676;27;45535;-82
2022/08/06 10:55:36;;;;;;;;;5.00;5.00;;;;;22.95;29.03;102004.38;5077315;27;46139;-83
2022/08/06 10:58:03;;;;;;;;;8.75;6.75;;;;;23.18;29.65;102037.53;5077360;27;45319;-85
2022/08/06 11:00:32;;;;;;;;;2.00;2.00;;;;;23.16;28.69;102014.31;5077403;27;45320;-82
2022/08/06 11:03:14;;;;;;;;;2.75;2.00;;;;;23.27;29.25;102019.69;5077341;27;45605;-82
2022/08/06 11:05:40;;;;;;;;;1.50;1.50;;;;;23.22;29.15;101997.31;5095015;27;46829;-82
2022/08/06 11:08:21;;;;;;;;;1.50;1.50;;;;;23.39;29.30;102017.91;5095447;27;46045;-84
2022/08/06 11:11:05;;;;;;;;;1.25;1.25;;;;;23.47;28.87;102015.25;5077527;27;45508;-83
2022/08/06 11:13:32;;;;;;;;;2.75;2.25;;;;;23.52;29.06;102023.31;5095604;27;45461;-85
2022/08/06 11:15:58;;;;;;;;;4.50;4.50;;;;;23.41;28.88;101989.31;5077153;27;47987;-82
2022/08/06 11:18:24;;;;;;;;;1.00;1.00;;;;;23.55;28.98;101996.50;5095490;27;45490;-83
2022/08/06 11:20:52;;;;;;;;;2.50;2.50;;;;;23.56;28.67;101990.22;5095406;27;45592;-82
2022/08/06 11:23:17;;;;;;;;;3.00;3.00;;;;;23.74;28.61;102025.16;5096056;27;45552;-80
2022/08/06 11:25:45;;;;;;;;;1.75;1.75;;;;;23.55;28.55;101975.91;5095045;27;45476;-84
2022/08/06 11:28:19;;;;;;;;;2.00;2.00;;;;;23.70;28.41;101979.53;5076829;27;45390;-82
2022/08/06 11:30:55;;;;;;;;;0.75;0.75;;;;;23.70;28.94;101974.16;5095613;27;45398;-85
2022/08/06 11:33:41;;;;;;;;;3.75;3.00;;;;;23.76;28.27;101975.06;5095301;27;45301;-83
2022/08/06 11:36:09;;;;;;;;;4.00;3.00;;;;;23.88;28.73;101980.41;5094375;27;46476;-82
2022/08/06 11:38:47;;;;;;;;;2.25;2.00;;;;;24.03;28.56;102003.66;5095349;27;45473;-85